sensor_id;sensor_type;location;lat;lon;timestamp;P1;durP1;ratioP1;P2;durP2;ratioP2
75554;SDS011;66087;53.126;17.960;2023-04-21T00:01:06;13.30;;;7.40;;
75554;SDS011;66087;53.126;17.960;2023-04-21T00:03:33;12.90;;;6.90;;
75554;SDS011;66087;53.126;17.960;2023-04-21T00:06:04;13.50;;;6.80;;
75554;SDS011;66087;53.126;17.960;2023-04-21T00:08:31;13.40;;;8.30;;
75554;SDS011;66087;53.126;17.960;2023-04-21T00:10:58;11.60;;;7.00;;
75554;SDS011;66087;53.126;17.960;2023-04-21T00:13:24;12.70;;;6.70;;
75554;SDS011;66087;53.126;17.960;2023-04-21T00:15:50;12.30;;;7.10;;
75554;SDS011;66087;53.126;17.960;2023-04-21T00:18:16;12.80;;;7.40;;
75554;SDS011;66087;53.126;17.960;2023-04-21T00:20:43;12.70;;;7.50;;
75554;SDS011;66087;53.126;17.960;2023-04-21T00:23:09;12.10;;;7.00;;
75554;SDS011;66087;53.126;17.960;2023-04-21T00:25:36;13.10;;;7.20;;
75554;SDS011;66087;53.126;17.960;2023-04-21T00:28:02;11.20;;;6.20;;
75554;SDS011;66087;53.126;17.960;2023-04-21T00:30:48;12.70;;;7.20;;
75554;SDS011;66087;53.126;17.960;2023-04-21T00:33:15;11.70;;;7.70;;
75554;SDS011;66087;53.126;17.960;2023-04-21T00:35:40;12.70;;;7.20;;
75554;SDS011;66087;53.126;17.960;2023-04-21T00:38:07;13.00;;;6.70;;
75554;SDS011;66087;53.126;17.960;2023-04-21T00:40:35;10.40;;;6.20;;
75554;SDS011;66087;53.126;17.960;2023-04-21T00:43:05;13.00;;;7.40;;
75554;SDS011;66087;53.126;17.960;2023-04-21T00:45:33;12.10;;;7.00;;
75554;SDS011;66087;53.126;17.960;2023-04-21T00:47:59;12.30;;;6.30;;
75554;SDS011;66087;53.126;17.960;2023-04-21T00:50:29;13.00;;;7.10;;
75554;SDS011;66087;53.126;17.960;2023-04-21T00:53:02;12.70;;;6.40;;
75554;SDS011;66087;53.126;17.960;2023-04-21T00:55:28;14.50;;;7.30;;
75554;SDS011;66087;53.126;17.960;2023-04-21T00:57:55;8.70;;;4.50;;
75554;SDS011;66087;53.126;17.960;2023-04-21T01:00:26;12.40;;;7.80;;
75554;SDS011;66087;53.126;17.960;2023-04-21T01:02:53;13.10;;;6.60;;
75554;SDS011;66087;53.126;17.960;2023-04-21T01:05:19;11.90;;;7.70;;
75554;SDS011;66087;53.126;17.960;2023-04-21T01:07:45;10.50;;;5.40;;
75554;SDS011;66087;53.126;17.960;2023-04-21T01:10:11;13.10;;;7.50;;
75554;SDS011;66087;53.126;17.960;2023-04-21T01:12:42;12.30;;;7.10;;
75554;SDS011;66087;53.126;17.960;2023-04-21T01:15:10;12.40;;;6.70;;
75554;SDS011;66087;53.126;17.960;2023-04-21T01:17:37;10.40;;;5.70;;
75554;SDS011;66087;53.126;17.960;2023-04-21T01:20:07;13.60;;;6.30;;
75554;SDS011;66087;53.126;17.960;2023-04-21T01:22:36;12.80;;;7.10;;
75554;SDS011;66087;53.126;17.960;2023-04-21T01:25:04;11.80;;;6.80;;
75554;SDS011;66087;53.126;17.960;2023-04-21T01:27:34;8.90;;;4.30;;
75554;SDS011;66087;53.126;17.960;2023-04-21T01:30:00;11.70;;;6.80;;
75554;SDS011;66087;53.126;17.960;2023-04-21T01:32:28;11.90;;;6.90;;
75554;SDS011;66087;53.126;17.960;2023-04-21T01:34:54;15.00;;;8.00;;
75554;SDS011;66087;53.126;17.960;2023-04-21T01:37:23;13.50;;;7.00;;
75554;SDS011;66087;53.126;17.960;2023-04-21T01:39:53;14.80;;;7.30;;
75554;SDS011;66087;53.126;17.960;2023-04-21T01:42:21;10.50;;;5.30;;
75554;SDS011;66087;53.126;17.960;2023-04-21T01:44:50;14.30;;;7.30;;
75554;SDS011;66087;53.126;17.960;2023-04-21T01:47:18;11.80;;;6.90;;
75554;SDS011;66087;53.126;17.960;2023-04-21T01:49:45;13.60;;;7.00;;
75554;SDS011;66087;53.126;17.960;2023-04-21T01:52:11;12.70;;;5.80;;
75554;SDS011;66087;53.126;17.960;2023-04-21T01:54:38;11.00;;;5.60;;
75554;SDS011;66087;53.126;17.960;2023-04-21T01:57:04;11.10;;;6.10;;
75554;SDS011;66087;53.126;17.960;2023-04-21T01:59:32;12.90;;;7.10;;
75554;SDS011;66087;53.126;17.960;2023-04-21T02:01:58;12.50;;;6.70;;
75554;SDS011;66087;53.126;17.960;2023-04-21T02:04:24;12.90;;;7.00;;
75554;SDS011;66087;53.126;17.960;2023-04-21T02:06:50;9.90;;;5.70;;
75554;SDS011;66087;53.126;17.960;2023-04-21T02:09:16;10.10;;;5.20;;
75554;SDS011;66087;53.126;17.960;2023-04-21T02:11:42;10.10;;;6.00;;
75554;SDS011;66087;53.126;17.960;2023-04-21T02:14:08;13.30;;;7.30;;
75554;SDS011;66087;53.126;17.960;2023-04-21T02:16:40;10.10;;;5.50;;
75554;SDS011;66087;53.126;17.960;2023-04-21T02:19:06;12.90;;;6.50;;
75554;SDS011;66087;53.126;17.960;2023-04-21T02:21:34;12.80;;;6.90;;
75554;SDS011;66087;53.126;17.960;2023-04-21T02:24:00;11.10;;;6.10;;
75554;SDS011;66087;53.126;17.960;2023-04-21T02:26:28;12.00;;;6.20;;
75554;SDS011;66087;53.126;17.960;2023-04-21T02:28:54;11.20;;;6.20;;
75554;SDS011;66087;53.126;17.960;2023-04-21T02:31:20;15.00;;;7.30;;
75554;SDS011;66087;53.126;17.960;2023-04-21T02:33:47;12.70;;;6.90;;
75554;SDS011;66087;53.126;17.960;2023-04-21T02:36:13;13.10;;;7.60;;
75554;SDS011;66087;53.126;17.960;2023-04-21T02:38:39;12.90;;;7.40;;
75554;SDS011;66087;53.126;17.960;2023-04-21T02:41:09;13.70;;;6.40;;
75554;SDS011;66087;53.126;17.960;2023-04-21T02:43:35;14.70;;;7.40;;
75554;SDS011;66087;53.126;17.960;2023-04-21T02:46:05;10.40;;;5.80;;
75554;SDS011;66087;53.126;17.960;2023-04-21T02:48:33;13.20;;;6.30;;
75554;SDS011;66087;53.126;17.960;2023-04-21T02:51:01;14.60;;;7.30;;
75554;SDS011;66087;53.126;17.960;2023-04-21T02:53:29;11.80;;;6.60;;
75554;SDS011;66087;53.126;17.960;2023-04-21T02:55:55;10.80;;;5.90;;
75554;SDS011;66087;53.126;17.960;2023-04-21T02:58:24;13.80;;;7.20;;
75554;SDS011;66087;53.126;17.960;2023-04-21T03:00:54;11.10;;;6.50;;
75554;SDS011;66087;53.126;17.960;2023-04-21T03:03:21;12.00;;;6.90;;
75554;SDS011;66087;53.126;17.960;2023-04-21T03:06:11;9.40;;;5.90;;
75554;SDS011;66087;53.126;17.960;2023-04-21T03:08:38;14.80;;;7.80;;
75554;SDS011;66087;53.126;17.960;2023-04-21T03:11:06;14.00;;;7.10;;
75554;SDS011;66087;53.126;17.960;2023-04-21T03:13:32;15.80;;;7.90;;
75554;SDS011;66087;53.126;17.960;2023-04-21T03:16:01;12.00;;;6.20;;
75554;SDS011;66087;53.126;17.960;2023-04-21T03:18:28;12.20;;;7.10;;
75554;SDS011;66087;53.126;17.960;2023-04-21T03:21:01;12.90;;;7.30;;
75554;SDS011;66087;53.126;17.960;2023-04-21T03:23:27;11.50;;;6.50;;
75554;SDS011;66087;53.126;17.960;2023-04-21T03:25:53;14.50;;;7.30;;
75554;SDS011;66087;53.126;17.960;2023-04-21T03:28:19;13.40;;;6.40;;
75554;SDS011;66087;53.126;17.960;2023-04-21T03:30:45;14.90;;;7.60;;
75554;SDS011;66087;53.126;17.960;2023-04-21T03:33:11;10.80;;;5.80;;
75554;SDS011;66087;53.126;17.960;2023-04-21T03:35:38;13.50;;;7.10;;
75554;SDS011;66087;53.126;17.960;2023-04-21T03:38:06;16.70;;;8.40;;
75554;SDS011;66087;53.126;17.960;2023-04-21T03:40:32;13.20;;;7.10;;
75554;SDS011;66087;53.126;17.960;2023-04-21T03:42:59;14.50;;;8.00;;
75554;SDS011;66087;53.126;17.960;2023-04-21T03:45:25;14.40;;;7.10;;
75554;SDS011;66087;53.126;17.960;2023-04-21T03:47:52;12.70;;;6.50;;
75554;SDS011;66087;53.126;17.960;2023-04-21T03:50:19;11.70;;;5.40;;
75554;SDS011;66087;53.126;17.960;2023-04-21T03:52:45;14.80;;;7.60;;
75554;SDS011;66087;53.126;17.960;2023-04-21T03:55:15;12.10;;;6.60;;
75554;SDS011;66087;53.126;17.960;2023-04-21T03:57:42;12.00;;;6.50;;
75554;SDS011;66087;53.126;17.960;2023-04-21T04:00:08;12.40;;;6.90;;
75554;SDS011;66087;53.126;17.960;2023-04-21T04:02:38;13.40;;;7.30;;
75554;SDS011;66087;53.126;17.960;2023-04-21T04:05:05;13.80;;;8.40;;
75554;SDS011;66087;53.126;17.960;2023-04-21T04:07:32;13.70;;;7.80;;
75554;SDS011;66087;53.126;17.960;2023-04-21T04:09:58;17.30;;;9.80;;
75554;SDS011;66087;53.126;17.960;2023-04-21T04:12:24;14.00;;;7.80;;
75554;SDS011;66087;53.126;17.960;2023-04-21T04:14:50;16.10;;;9.20;;
75554;SDS011;66087;53.126;17.960;2023-04-21T04:17:16;14.50;;;8.10;;
75554;SDS011;66087;53.126;17.960;2023-04-21T04:19:43;13.30;;;8.10;;
75554;SDS011;66087;53.126;17.960;2023-04-21T04:22:09;15.00;;;8.20;;
75554;SDS011;66087;53.126;17.960;2023-04-21T04:24:35;16.00;;;8.50;;
75554;SDS011;66087;53.126;17.960;2023-04-21T04:27:06;12.80;;;8.30;;
75554;SDS011;66087;53.126;17.960;2023-04-21T04:29:31;12.50;;;7.20;;
75554;SDS011;66087;53.126;17.960;2023-04-21T04:31:58;12.80;;;7.40;;
75554;SDS011;66087;53.126;17.960;2023-04-21T04:34:26;12.40;;;7.10;;
75554;SDS011;66087;53.126;17.960;2023-04-21T04:36:51;14.60;;;7.80;;
75554;SDS011;66087;53.126;17.960;2023-04-21T04:39:18;13.30;;;8.00;;
75554;SDS011;66087;53.126;17.960;2023-04-21T04:41:44;14.80;;;6.90;;
75554;SDS011;66087;53.126;17.960;2023-04-21T04:44:12;12.60;;;7.20;;
75554;SDS011;66087;53.126;17.960;2023-04-21T04:46:40;11.60;;;6.50;;
75554;SDS011;66087;53.126;17.960;2023-04-21T04:49:10;13.40;;;6.10;;
75554;SDS011;66087;53.126;17.960;2023-04-21T04:51:36;13.00;;;8.00;;
75554;SDS011;66087;53.126;17.960;2023-04-21T04:54:05;14.80;;;7.70;;
75554;SDS011;66087;53.126;17.960;2023-04-21T04:56:31;14.10;;;6.40;;
75554;SDS011;66087;53.126;17.960;2023-04-21T04:58:57;13.30;;;6.80;;
75554;SDS011;66087;53.126;17.960;2023-04-21T05:01:43;13.50;;;8.40;;
75554;SDS011;66087;53.126;17.960;2023-04-21T05:04:10;14.20;;;8.00;;
75554;SDS011;66087;53.126;17.960;2023-04-21T05:06:36;13.60;;;7.60;;
75554;SDS011;66087;53.126;17.960;2023-04-21T05:09:02;14.50;;;8.30;;
75554;SDS011;66087;53.126;17.960;2023-04-21T05:11:29;17.40;;;9.80;;
75554;SDS011;66087;53.126;17.960;2023-04-21T05:13:55;16.40;;;9.30;;
75554;SDS011;66087;53.126;17.960;2023-04-21T05:16:21;17.90;;;10.70;;
75554;SDS011;66087;53.126;17.960;2023-04-21T05:18:47;18.80;;;11.70;;
75554;SDS011;66087;53.126;17.960;2023-04-21T05:21:22;17.20;;;9.50;;
75554;SDS011;66087;53.126;17.960;2023-04-21T05:23:49;19.20;;;9.50;;
75554;SDS011;66087;53.126;17.960;2023-04-21T05:26:17;14.20;;;8.30;;
75554;SDS011;66087;53.126;17.960;2023-04-21T05:28:43;20.00;;;10.20;;
75554;SDS011;66087;53.126;17.960;2023-04-21T05:31:08;15.20;;;8.60;;
75554;SDS011;66087;53.126;17.960;2023-04-21T05:33:35;14.70;;;7.30;;
75554;SDS011;66087;53.126;17.960;2023-04-21T05:36:05;15.60;;;8.50;;
75554;SDS011;66087;53.126;17.960;2023-04-21T05:38:39;17.70;;;8.80;;
75554;SDS011;66087;53.126;17.960;2023-04-21T05:41:07;17.60;;;8.70;;
75554;SDS011;66087;53.126;17.960;2023-04-21T05:43:34;14.80;;;9.10;;
75554;SDS011;66087;53.126;17.960;2023-04-21T05:46:00;15.70;;;8.60;;
75554;SDS011;66087;53.126;17.960;2023-04-21T05:48:34;16.00;;;9.10;;
75554;SDS011;66087;53.126;17.960;2023-04-21T05:53:40;11.80;;;6.70;;
75554;SDS011;66087;53.126;17.960;2023-04-21T05:56:09;16.20;;;9.40;;
75554;SDS011;66087;53.126;17.960;2023-04-21T05:58:35;14.50;;;8.60;;
75554;SDS011;66087;53.126;17.960;2023-04-21T06:01:03;12.30;;;7.90;;
75554;SDS011;66087;53.126;17.960;2023-04-21T06:03:33;12.30;;;7.50;;
75554;SDS011;66087;53.126;17.960;2023-04-21T06:05:59;17.20;;;9.20;;
75554;SDS011;66087;53.126;17.960;2023-04-21T06:08:28;21.30;;;9.80;;
75554;SDS011;66087;53.126;17.960;2023-04-21T06:10:57;13.40;;;7.80;;
75554;SDS011;66087;53.126;17.960;2023-04-21T06:13:25;14.70;;;8.30;;
75554;SDS011;66087;53.126;17.960;2023-04-21T06:15:53;14.50;;;8.30;;
75554;SDS011;66087;53.126;17.960;2023-04-21T06:18:21;14.50;;;8.50;;
75554;SDS011;66087;53.126;17.960;2023-04-21T06:20:49;14.50;;;9.50;;
75554;SDS011;66087;53.126;17.960;2023-04-21T06:23:16;13.90;;;7.80;;
75554;SDS011;66087;53.126;17.960;2023-04-21T06:25:42;16.80;;;8.20;;
75554;SDS011;66087;53.126;17.960;2023-04-21T06:28:08;14.90;;;7.90;;
75554;SDS011;66087;53.126;17.960;2023-04-21T06:30:35;16.10;;;9.90;;
75554;SDS011;66087;53.126;17.960;2023-04-21T06:33:03;15.70;;;7.60;;
75554;SDS011;66087;53.126;17.960;2023-04-21T06:35:31;16.20;;;8.30;;
75554;SDS011;66087;53.126;17.960;2023-04-21T06:37:59;16.30;;;8.70;;
75554;SDS011;66087;53.126;17.960;2023-04-21T06:40:25;9.90;;;6.30;;
75554;SDS011;66087;53.126;17.960;2023-04-21T06:42:53;14.10;;;7.90;;
75554;SDS011;66087;53.126;17.960;2023-04-21T06:45:20;14.10;;;8.50;;
75554;SDS011;66087;53.126;17.960;2023-04-21T06:47:48;10.70;;;6.50;;
75554;SDS011;66087;53.126;17.960;2023-04-21T06:50:21;15.80;;;7.80;;
75554;SDS011;66087;53.126;17.960;2023-04-21T06:52:51;12.60;;;7.20;;
75554;SDS011;66087;53.126;17.960;2023-04-21T06:55:18;15.30;;;8.90;;
75554;SDS011;66087;53.126;17.960;2023-04-21T06:57:47;13.10;;;8.20;;
75554;SDS011;66087;53.126;17.960;2023-04-21T07:00:15;11.80;;;7.30;;
75554;SDS011;66087;53.126;17.960;2023-04-21T07:02:42;15.20;;;7.70;;
75554;SDS011;66087;53.126;17.960;2023-04-21T07:05:08;12.80;;;7.90;;
75554;SDS011;66087;53.126;17.960;2023-04-21T07:07:36;11.50;;;6.90;;
75554;SDS011;66087;53.126;17.960;2023-04-21T07:10:03;12.40;;;7.70;;
75554;SDS011;66087;53.126;17.960;2023-04-21T07:12:29;14.20;;;8.50;;
75554;SDS011;66087;53.126;17.960;2023-04-21T07:14:55;12.30;;;7.20;;
75554;SDS011;66087;53.126;17.960;2023-04-21T07:17:22;11.80;;;6.70;;
75554;SDS011;66087;53.126;17.960;2023-04-21T07:19:48;11.80;;;7.00;;
75554;SDS011;66087;53.126;17.960;2023-04-21T07:22:14;8.90;;;5.30;;
75554;SDS011;66087;53.126;17.960;2023-04-21T07:24:41;10.90;;;6.20;;
75554;SDS011;66087;53.126;17.960;2023-04-21T07:27:10;11.90;;;5.90;;
75554;SDS011;66087;53.126;17.960;2023-04-21T07:29:36;11.60;;;7.00;;
75554;SDS011;66087;53.126;17.960;2023-04-21T07:32:22;9.70;;;5.50;;
75554;SDS011;66087;53.126;17.960;2023-04-21T07:34:50;9.90;;;5.40;;
75554;SDS011;66087;53.126;17.960;2023-04-21T07:37:16;10.80;;;5.30;;
75554;SDS011;66087;53.126;17.960;2023-04-21T07:39:42;10.80;;;6.20;;
75554;SDS011;66087;53.126;17.960;2023-04-21T07:42:09;9.60;;;5.70;;
75554;SDS011;66087;53.126;17.960;2023-04-21T07:44:35;14.20;;;6.10;;
75554;SDS011;66087;53.126;17.960;2023-04-21T07:47:02;9.80;;;6.00;;
75554;SDS011;66087;53.126;17.960;2023-04-21T07:49:48;10.20;;;5.00;;
75554;SDS011;66087;53.126;17.960;2023-04-21T07:52:14;7.00;;;4.20;;
75554;SDS011;66087;53.126;17.960;2023-04-21T07:54:40;8.60;;;3.60;;
75554;SDS011;66087;53.126;17.960;2023-04-21T07:57:06;7.70;;;4.80;;
75554;SDS011;66087;53.126;17.960;2023-04-21T07:59:33;8.30;;;4.40;;
75554;SDS011;66087;53.126;17.960;2023-04-21T08:01:59;11.20;;;5.60;;
75554;SDS011;66087;53.126;17.960;2023-04-21T08:04:25;8.40;;;5.30;;
75554;SDS011;66087;53.126;17.960;2023-04-21T08:06:51;9.20;;;4.40;;
75554;SDS011;66087;53.126;17.960;2023-04-21T08:09:18;8.90;;;4.50;;
75554;SDS011;66087;53.126;17.960;2023-04-21T08:11:44;8.30;;;4.50;;
75554;SDS011;66087;53.126;17.960;2023-04-21T08:14:12;8.00;;;3.60;;
75554;SDS011;66087;53.126;17.960;2023-04-21T08:16:38;8.50;;;3.80;;
75554;SDS011;66087;53.126;17.960;2023-04-21T08:19:07;7.30;;;3.40;;
75554;SDS011;66087;53.126;17.960;2023-04-21T08:21:36;8.10;;;4.10;;
75554;SDS011;66087;53.126;17.960;2023-04-21T08:24:02;6.60;;;3.50;;
75554;SDS011;66087;53.126;17.960;2023-04-21T08:26:29;5.70;;;2.20;;
75554;SDS011;66087;53.126;17.960;2023-04-21T08:28:58;6.80;;;3.90;;
75554;SDS011;66087;53.126;17.960;2023-04-21T08:31:25;6.80;;;3.30;;
75554;SDS011;66087;53.126;17.960;2023-04-21T08:33:52;6.40;;;3.40;;
75554;SDS011;66087;53.126;17.960;2023-04-21T08:36:18;7.40;;;3.90;;
75554;SDS011;66087;53.126;17.960;2023-04-21T08:38:46;7.70;;;3.90;;
75554;SDS011;66087;53.126;17.960;2023-04-21T08:41:12;6.60;;;2.80;;
75554;SDS011;66087;53.126;17.960;2023-04-21T08:43:40;6.00;;;3.60;;
75554;SDS011;66087;53.126;17.960;2023-04-21T08:46:10;8.50;;;3.60;;
75554;SDS011;66087;53.126;17.960;2023-04-21T08:49:18;7.20;;;2.20;;
75554;SDS011;66087;53.126;17.960;2023-04-21T08:51:45;10.40;;;2.40;;
75554;SDS011;66087;53.126;17.960;2023-04-21T08:54:17;6.20;;;2.80;;
75554;SDS011;66087;53.126;17.960;2023-04-21T08:56:43;8.20;;;3.30;;
75554;SDS011;66087;53.126;17.960;2023-04-21T08:59:12;6.00;;;3.00;;
75554;SDS011;66087;53.126;17.960;2023-04-21T09:02:05;5.90;;;3.00;;
75554;SDS011;66087;53.126;17.960;2023-04-21T09:04:37;4.90;;;2.70;;
75554;SDS011;66087;53.126;17.960;2023-04-21T09:07:04;5.70;;;2.50;;
75554;SDS011;66087;53.126;17.960;2023-04-21T09:12:23;5.30;;;3.00;;
75554;SDS011;66087;53.126;17.960;2023-04-21T09:14:49;6.40;;;2.70;;
75554;SDS011;66087;53.126;17.960;2023-04-21T09:17:16;5.40;;;2.60;;
75554;SDS011;66087;53.126;17.960;2023-04-21T09:19:43;4.50;;;2.20;;
75554;SDS011;66087;53.126;17.960;2023-04-21T09:22:13;7.20;;;3.40;;
75554;SDS011;66087;53.126;17.960;2023-04-21T09:24:44;8.10;;;2.90;;
75554;SDS011;66087;53.126;17.960;2023-04-21T09:27:11;5.90;;;2.50;;
75554;SDS011;66087;53.126;17.960;2023-04-21T09:29:43;6.00;;;2.60;;
75554;SDS011;66087;53.126;17.960;2023-04-21T09:32:11;6.80;;;2.50;;
75554;SDS011;66087;53.126;17.960;2023-04-21T09:34:46;4.90;;;2.70;;
75554;SDS011;66087;53.126;17.960;2023-04-21T09:37:12;6.30;;;3.20;;
75554;SDS011;66087;53.126;17.960;2023-04-21T09:39:44;6.30;;;2.50;;
75554;SDS011;66087;53.126;17.960;2023-04-21T09:42:14;4.90;;;2.30;;
75554;SDS011;66087;53.126;17.960;2023-04-21T09:44:42;6.20;;;3.10;;
75554;SDS011;66087;53.126;17.960;2023-04-21T09:47:09;7.40;;;2.40;;
75554;SDS011;66087;53.126;17.960;2023-04-21T09:49:39;5.60;;;3.10;;
75554;SDS011;66087;53.126;17.960;2023-04-21T09:52:09;6.30;;;3.30;;
75554;SDS011;66087;53.126;17.960;2023-04-21T09:54:42;6.40;;;3.00;;
75554;SDS011;66087;53.126;17.960;2023-04-21T09:57:16;5.70;;;2.20;;
75554;SDS011;66087;53.126;17.960;2023-04-21T09:59:54;5.50;;;2.60;;
75554;SDS011;66087;53.126;17.960;2023-04-21T10:02:38;6.10;;;3.10;;
75554;SDS011;66087;53.126;17.960;2023-04-21T10:05:10;6.50;;;3.10;;
75554;SDS011;66087;53.126;17.960;2023-04-21T10:07:41;6.10;;;2.40;;
75554;SDS011;66087;53.126;17.960;2023-04-21T10:10:17;5.50;;;3.00;;
75554;SDS011;66087;53.126;17.960;2023-04-21T10:12:48;7.00;;;2.90;;
75554;SDS011;66087;53.126;17.960;2023-04-21T10:26:00;7.20;;;3.40;;
75554;SDS011;66087;53.126;17.960;2023-04-21T10:29:28;4.60;;;2.20;;
75554;SDS011;66087;53.126;17.960;2023-04-21T10:31:55;6.40;;;2.40;;
75554;SDS011;66087;53.126;17.960;2023-04-21T10:34:35;5.80;;;2.50;;
75554;SDS011;66087;53.126;17.960;2023-04-21T10:37:32;6.50;;;3.00;;
75554;SDS011;66087;53.126;17.960;2023-04-21T10:40:01;7.60;;;2.70;;
75554;SDS011;66087;53.126;17.960;2023-04-21T10:42:37;6.20;;;2.70;;
75554;SDS011;66087;53.126;17.960;2023-04-21T10:45:18;10.10;;;3.00;;
75554;SDS011;66087;53.126;17.960;2023-04-21T10:48:12;6.10;;;2.40;;
75554;SDS011;66087;53.126;17.960;2023-04-21T10:50:44;4.70;;;2.40;;
75554;SDS011;66087;53.126;17.960;2023-04-21T10:53:14;5.90;;;2.70;;
75554;SDS011;66087;53.126;17.960;2023-04-21T10:55:48;4.60;;;2.80;;
75554;SDS011;66087;53.126;17.960;2023-04-21T10:58:48;6.30;;;3.10;;
75554;SDS011;66087;53.126;17.960;2023-04-21T11:01:27;5.40;;;2.50;;
75554;SDS011;66087;53.126;17.960;2023-04-21T11:04:13;5.50;;;2.70;;
75554;SDS011;66087;53.126;17.960;2023-04-21T11:06:42;5.20;;;3.00;;
75554;SDS011;66087;53.126;17.960;2023-04-21T11:09:27;5.90;;;3.40;;
75554;SDS011;66087;53.126;17.960;2023-04-21T11:11:58;5.10;;;2.70;;
75554;SDS011;66087;53.126;17.960;2023-04-21T11:14:46;8.20;;;3.30;;
75554;SDS011;66087;53.126;17.960;2023-04-21T11:17:31;6.00;;;2.40;;
75554;SDS011;66087;53.126;17.960;2023-04-21T11:20:00;5.60;;;2.60;;
75554;SDS011;66087;53.126;17.960;2023-04-21T11:22:51;5.60;;;2.70;;
75554;SDS011;66087;53.126;17.960;2023-04-21T11:25:34;6.80;;;3.20;;
75554;SDS011;66087;53.126;17.960;2023-04-21T11:28:29;5.20;;;2.30;;
75554;SDS011;66087;53.126;17.960;2023-04-21T11:30:56;5.10;;;2.70;;
75554;SDS011;66087;53.126;17.960;2023-04-21T11:33:35;6.00;;;2.40;;
75554;SDS011;66087;53.126;17.960;2023-04-21T11:36:06;8.60;;;3.20;;
75554;SDS011;66087;53.126;17.960;2023-04-21T11:38:38;7.50;;;3.60;;
75554;SDS011;66087;53.126;17.960;2023-04-21T11:41:06;6.70;;;3.30;;
75554;SDS011;66087;53.126;17.960;2023-04-21T11:43:35;6.40;;;2.90;;
75554;SDS011;66087;53.126;17.960;2023-04-21T11:46:11;8.30;;;3.30;;
75554;SDS011;66087;53.126;17.960;2023-04-21T11:48:42;8.90;;;3.20;;
75554;SDS011;66087;53.126;17.960;2023-04-21T11:51:13;7.40;;;3.30;;
75554;SDS011;66087;53.126;17.960;2023-04-21T11:53:42;6.10;;;2.90;;
75554;SDS011;66087;53.126;17.960;2023-04-21T11:56:08;5.60;;;2.60;;
75554;SDS011;66087;53.126;17.960;2023-04-21T11:58:37;7.40;;;3.40;;
75554;SDS011;66087;53.126;17.960;2023-04-21T12:01:07;5.20;;;2.50;;
75554;SDS011;66087;53.126;17.960;2023-04-21T12:03:34;6.00;;;2.90;;
75554;SDS011;66087;53.126;17.960;2023-04-21T12:06:02;5.80;;;3.20;;
75554;SDS011;66087;53.126;17.960;2023-04-21T12:08:30;7.60;;;3.10;;
75554;SDS011;66087;53.126;17.960;2023-04-21T12:10:57;4.90;;;2.60;;
75554;SDS011;66087;53.126;17.960;2023-04-21T12:13:26;6.20;;;3.30;;
75554;SDS011;66087;53.126;17.960;2023-04-21T12:15:54;6.30;;;3.20;;
75554;SDS011;66087;53.126;17.960;2023-04-21T12:18:21;7.80;;;3.40;;
75554;SDS011;66087;53.126;17.960;2023-04-21T12:20:52;6.50;;;3.30;;
75554;SDS011;66087;53.126;17.960;2023-04-21T12:23:19;5.50;;;2.60;;
75554;SDS011;66087;53.126;17.960;2023-04-21T12:25:46;6.20;;;3.30;;
75554;SDS011;66087;53.126;17.960;2023-04-21T12:28:13;4.70;;;2.00;;
75554;SDS011;66087;53.126;17.960;2023-04-21T12:30:40;6.00;;;3.00;;
75554;SDS011;66087;53.126;17.960;2023-04-21T12:33:07;6.80;;;3.30;;
75554;SDS011;66087;53.126;17.960;2023-04-21T12:35:33;7.40;;;2.80;;
75554;SDS011;66087;53.126;17.960;2023-04-21T12:38:00;6.70;;;3.20;;
75554;SDS011;66087;53.126;17.960;2023-04-21T12:40:47;6.90;;;2.90;;
75554;SDS011;66087;53.126;17.960;2023-04-21T12:43:13;6.80;;;2.90;;
75554;SDS011;66087;53.126;17.960;2023-04-21T12:45:39;8.20;;;3.50;;
75554;SDS011;66087;53.126;17.960;2023-04-21T12:48:06;4.60;;;2.70;;
75554;SDS011;66087;53.126;17.960;2023-04-21T12:50:32;6.20;;;3.50;;
75554;SDS011;66087;53.126;17.960;2023-04-21T12:52:58;6.70;;;3.30;;
75554;SDS011;66087;53.126;17.960;2023-04-21T12:55:24;5.50;;;2.90;;
75554;SDS011;66087;53.126;17.960;2023-04-21T12:57:50;5.90;;;3.10;;
75554;SDS011;66087;53.126;17.960;2023-04-21T13:00:17;6.50;;;3.90;;
75554;SDS011;66087;53.126;17.960;2023-04-21T13:02:43;5.50;;;3.30;;
75554;SDS011;66087;53.126;17.960;2023-04-21T13:05:09;5.70;;;3.60;;
75554;SDS011;66087;53.126;17.960;2023-04-21T13:07:37;5.40;;;3.20;;
75554;SDS011;66087;53.126;17.960;2023-04-21T13:10:05;6.80;;;3.60;;
75554;SDS011;66087;53.126;17.960;2023-04-21T13:12:53;5.70;;;3.80;;
75554;SDS011;66087;53.126;17.960;2023-04-21T13:15:23;6.60;;;3.40;;
75554;SDS011;66087;53.126;17.960;2023-04-21T13:18:09;6.30;;;4.20;;
75554;SDS011;66087;53.126;17.960;2023-04-21T13:20:37;9.60;;;3.90;;
75554;SDS011;66087;53.126;17.960;2023-04-21T13:23:03;5.20;;;3.60;;
75554;SDS011;66087;53.126;17.960;2023-04-21T13:25:49;5.80;;;3.40;;
75554;SDS011;66087;53.126;17.960;2023-04-21T13:28:17;5.70;;;3.60;;
75554;SDS011;66087;53.126;17.960;2023-04-21T13:30:45;5.90;;;3.80;;
75554;SDS011;66087;53.126;17.960;2023-04-21T13:33:13;7.10;;;3.80;;
75554;SDS011;66087;53.126;17.960;2023-04-21T13:35:40;7.00;;;4.90;;
75554;SDS011;66087;53.126;17.960;2023-04-21T13:38:08;5.90;;;3.70;;
75554;SDS011;66087;53.126;17.960;2023-04-21T13:40:35;5.40;;;3.70;;
75554;SDS011;66087;53.126;17.960;2023-04-21T13:43:01;5.50;;;4.10;;
75554;SDS011;66087;53.126;17.960;2023-04-21T13:45:27;7.10;;;4.00;;
75554;SDS011;66087;53.126;17.960;2023-04-21T13:47:53;6.10;;;3.90;;
75554;SDS011;66087;53.126;17.960;2023-04-21T13:50:19;5.70;;;4.10;;
75554;SDS011;66087;53.126;17.960;2023-04-21T13:52:46;5.90;;;3.80;;
75554;SDS011;66087;53.126;17.960;2023-04-21T13:55:12;6.90;;;4.70;;
75554;SDS011;66087;53.126;17.960;2023-04-21T13:57:38;7.90;;;4.40;;
75554;SDS011;66087;53.126;17.960;2023-04-21T14:00:06;6.30;;;4.30;;
75554;SDS011;66087;53.126;17.960;2023-04-21T14:02:36;6.90;;;4.00;;
75554;SDS011;66087;53.126;17.960;2023-04-21T14:05:23;6.40;;;4.20;;
75554;SDS011;66087;53.126;17.960;2023-04-21T14:07:52;7.00;;;5.20;;
75554;SDS011;66087;53.126;17.960;2023-04-21T14:10:18;6.80;;;4.00;;
75554;SDS011;66087;53.126;17.960;2023-04-21T14:12:49;5.70;;;4.00;;
75554;SDS011;66087;53.126;17.960;2023-04-21T14:15:15;6.00;;;4.40;;
75554;SDS011;66087;53.126;17.960;2023-04-21T14:17:42;7.50;;;4.50;;
75554;SDS011;66087;53.126;17.960;2023-04-21T14:20:08;5.90;;;4.30;;
75554;SDS011;66087;53.126;17.960;2023-04-21T14:22:38;5.30;;;3.70;;
75554;SDS011;66087;53.126;17.960;2023-04-21T14:25:07;6.70;;;4.20;;
75554;SDS011;66087;53.126;17.960;2023-04-21T14:27:33;6.20;;;4.80;;
75554;SDS011;66087;53.126;17.960;2023-04-21T14:29:59;6.40;;;4.70;;
75554;SDS011;66087;53.126;17.960;2023-04-21T14:32:25;7.30;;;4.60;;
75554;SDS011;66087;53.126;17.960;2023-04-21T14:34:53;6.80;;;4.90;;
75554;SDS011;66087;53.126;17.960;2023-04-21T14:37:21;4.70;;;4.00;;
75554;SDS011;66087;53.126;17.960;2023-04-21T14:39:55;7.60;;;4.70;;
75554;SDS011;66087;53.126;17.960;2023-04-21T14:42:21;6.10;;;4.60;;
75554;SDS011;66087;53.126;17.960;2023-04-21T14:44:47;6.40;;;4.40;;
75554;SDS011;66087;53.126;17.960;2023-04-21T14:47:13;5.20;;;3.80;;
75554;SDS011;66087;53.126;17.960;2023-04-21T14:49:39;5.00;;;4.40;;
75554;SDS011;66087;53.126;17.960;2023-04-21T14:52:05;5.00;;;4.00;;
75554;SDS011;66087;53.126;17.960;2023-04-21T14:54:32;6.20;;;4.80;;
75554;SDS011;66087;53.126;17.960;2023-04-21T14:56:59;6.00;;;4.70;;